sensor_id;sensor_type;location;lat;lon;timestamp;pressure;altitude;pressure_sealevel;temperature;humidity
43681;BME280;29281;50.356;30.894;2023-02-04T00:00:05;99768.27;;;1.20;92.40
43681;BME280;29281;50.356;30.894;2023-02-04T00:01:13;99774.41;;;1.19;92.48
43681;BME280;29281;50.356;30.894;2023-02-04T00:02:15;99769.12;;;1.20;92.60
43681;BME280;29281;50.356;30.894;2023-02-04T00:03:18;99768.53;;;1.12;95.32
43681;BME280;29281;50.356;30.894;2023-02-04T00:04:23;99772.23;;;1.07;94.65
43681;BME280;29281;50.356;30.894;2023-02-04T00:05:28;99772.16;;;1.08;93.31
43681;BME280;29281;50.356;30.894;2023-02-04T00:06:30;99772.09;;;1.10;93.93
43681;BME280;29281;50.356;30.894;2023-02-04T00:07:34;99766.92;;;1.08;93.17
43681;BME280;29281;50.356;30.894;2023-02-04T00:08:36;99767.73;;;1.10;94.26
43681;BME280;29281;50.356;30.894;2023-02-04T00:09:40;99765.22;;;1.07;94.27
43681;BME280;29281;50.356;30.894;2023-02-04T00:10:44;99768.63;;;1.09;94.10
43681;BME280;29281;50.356;30.894;2023-02-04T00:11:47;99761.78;;;1.07;93.38
43681;BME280;29281;50.356;30.894;2023-02-04T00:12:50;99759.38;;;1.00;93.48
43681;BME280;29281;50.356;30.894;2023-02-04T00:13:53;99765.71;;;0.93;93.35
43681;BME280;29281;50.356;30.894;2023-02-04T00:14:57;99765.66;;;0.95;95.31
43681;BME280;29281;50.356;30.894;2023-02-04T00:16:01;99760.48;;;0.93;94.71
43681;BME280;29281;50.356;30.894;2023-02-04T00:17:04;99767.61;;;0.90;95.17
43681;BME280;29281;50.356;30.894;2023-02-04T00:18:09;99767.66;;;0.88;94.56
43681;BME280;29281;50.356;30.894;2023-02-04T00:19:13;99767.81;;;0.84;94.82
43681;BME280;29281;50.356;30.894;2023-02-04T00:20:16;99768.71;;;0.83;95.61
43681;BME280;29281;50.356;30.894;2023-02-04T00:21:20;99765.40;;;0.78;96.51
43681;BME280;29281;50.356;30.894;2023-02-04T00:22:23;99767.16;;;0.77;95.93
43681;BME280;29281;50.356;30.894;2023-02-04T00:23:28;99771.71;;;0.72;95.43
43681;BME280;29281;50.356;30.894;2023-02-04T00:24:32;99767.48;;;0.68;96.08
43681;BME280;29281;50.356;30.894;2023-02-04T00:25:35;99765.88;;;0.64;97.56
43681;BME280;29281;50.356;30.894;2023-02-04T00:26:40;99768.49;;;0.64;98.01
43681;BME280;29281;50.356;30.894;2023-02-04T00:27:43;99764.13;;;0.64;97.67
43681;BME280;29281;50.356;30.894;2023-02-04T00:28:46;99764.13;;;0.64;98.75
43681;BME280;29281;50.356;30.894;2023-02-04T00:29:48;99769.34;;;0.64;97.83
43681;BME280;29281;50.356;30.894;2023-02-04T00:30:51;99765.88;;;0.64;97.90
43681;BME280;29281;50.356;30.894;2023-02-04T00:31:55;99761.73;;;0.58;98.93
43681;BME280;29281;50.356;30.894;2023-02-04T00:33:01;99762.59;;;0.59;98.26
43681;BME280;29281;50.356;30.894;2023-02-04T00:34:05;99763.50;;;0.58;97.84
43681;BME280;29281;50.356;30.894;2023-02-04T00:35:11;99763.59;;;0.55;97.19
43681;BME280;29281;50.356;30.894;2023-02-04T00:36:15;99761.94;;;0.52;96.49
43681;BME280;29281;50.356;30.894;2023-02-04T00:37:20;99762.94;;;0.48;96.22
43681;BME280;29281;50.356;30.894;2023-02-04T00:38:23;99761.36;;;0.44;95.45
43681;BME280;29281;50.356;30.894;2023-02-04T00:39:29;99762.59;;;0.32;95.45
43681;BME280;29281;50.356;30.894;2023-02-04T00:40:33;99761.55;;;0.38;95.49
43681;BME280;29281;50.356;30.894;2023-02-04T00:41:35;99766.67;;;0.41;95.27
43681;BME280;29281;50.356;30.894;2023-02-04T00:42:42;99765.73;;;0.44;94.93
43681;BME280;29281;50.356;30.894;2023-02-04T00:43:45;99770.72;;;0.50;95.77
43681;BME280;29281;50.356;30.894;2023-02-04T00:44:48;99766.25;;;0.53;95.85
43681;BME280;29281;50.356;30.894;2023-02-04T00:45:52;99771.48;;;0.53;97.24
43681;BME280;29281;50.356;30.894;2023-02-04T00:46:55;99767.06;;;0.55;96.08
43681;BME280;29281;50.356;30.894;2023-02-04T00:48:00;99762.84;;;0.51;96.80
43681;BME280;29281;50.356;30.894;2023-02-04T00:49:03;99764.50;;;0.54;95.98
43681;BME280;29281;50.356;30.894;2023-02-04T00:50:09;99761.03;;;0.53;96.75
43681;BME280;29281;50.356;30.894;2023-02-04T00:51:12;99769.58;;;0.58;96.96
43681;BME280;29281;50.356;30.894;2023-02-04T00:52:17;99767.91;;;0.56;96.50
43681;BME280;29281;50.356;30.894;2023-02-04T00:53:21;99771.28;;;0.59;95.93
43681;BME280;29281;50.356;30.894;2023-02-04T00:54:26;99767.77;;;0.60;95.92
43681;BME280;29281;50.356;30.894;2023-02-04T00:55:29;99772.28;;;0.55;95.01
43681;BME280;29281;50.356;30.894;2023-02-04T00:56:33;99768.02;;;0.53;94.80
43681;BME280;29281;50.356;30.894;2023-02-04T00:57:38;99765.35;;;0.54;94.06
43681;BME280;29281;50.356;30.894;2023-02-04T00:58:41;99760.22;;;0.51;95.80
43681;BME280;29281;50.356;30.894;2023-02-04T00:59:45;99769.67;;;0.55;95.70
43681;BME280;29281;50.356;30.894;2023-02-04T01:00:49;99767.91;;;0.56;96.12
43681;BME280;29281;50.356;30.894;2023-02-04T01:01:53;99765.30;;;0.56;95.16
43681;BME280;29281;50.356;30.894;2023-02-04T01:02:56;99776.70;;;0.53;94.12
43681;BME280;29281;50.356;30.894;2023-02-04T01:04:03;99774.95;;;0.54;93.50
43681;BME280;29281;50.356;30.894;2023-02-04T01:05:07;99770.58;;;0.54;94.04
43681;BME280;29281;50.356;30.894;2023-02-04T01:06:10;99769.62;;;0.57;93.79
43681;BME280;29281;50.356;30.894;2023-02-04T01:07:14;99763.45;;;0.59;93.66
43681;BME280;29281;50.356;30.894;2023-02-04T01:08:16;99767.64;;;0.63;93.79
43681;BME280;29281;50.356;30.894;2023-02-04T01:09:19;99764.02;;;0.67;94.83
43681;BME280;29281;50.356;30.894;2023-02-04T01:10:21;99773.47;;;0.72;93.76
43681;BME280;29281;50.356;30.894;2023-02-04T01:11:24;99772.47;;;0.76;93.33
43681;BME280;29281;50.356;30.894;2023-02-04T01:12:27;99762.97;;;0.73;94.61
43681;BME280;29281;50.356;30.894;2023-02-04T01:13:33;99769.95;;;0.73;93.38
43681;BME280;29281;50.356;30.894;2023-02-04T08:16:12;99977.41;;;1.97;94.33
43681;BME280;29281;50.356;30.894;2023-02-04T08:17:18;99988.04;;;2.16;92.82
43681;BME280;29281;50.356;30.894;2023-02-04T08:18:26;99989.59;;;2.22;92.22
43681;BME280;29281;50.356;30.894;2023-02-04T08:19:27;99990.55;;;2.19;92.72
43681;BME280;29281;50.356;30.894;2023-02-04T08:20:30;99990.50;;;2.21;92.79
43681;BME280;29281;50.356;30.894;2023-02-04T08:21:34;99989.43;;;2.26;92.08
43681;BME280;29281;50.356;30.894;2023-02-04T08:22:38;99989.54;;;2.23;92.58
43681;BME280;29281;50.356;30.894;2023-02-04T08:23:42;99994.78;;;2.23;92.98
43681;BME280;29281;50.356;30.894;2023-02-04T08:24:47;99986.83;;;2.48;92.37
43681;BME280;29281;50.356;30.894;2023-02-04T08:25:50;99994.22;;;2.60;91.39
43681;BME280;29281;50.356;30.894;2023-02-04T08:26:53;99993.31;;;2.61;90.23
43681;BME280;29281;50.356;30.894;2023-02-04T08:27:56;99991.33;;;2.44;89.97
43681;BME280;29281;50.356;30.894;2023-02-04T08:28:59;99998.23;;;2.47;89.51
43681;BME280;29281;50.356;30.894;2023-02-04T08:30:04;99995.97;;;2.38;90.56
43681;BME280;29281;50.356;30.894;2023-02-04T08:31:06;99998.38;;;2.66;89.57
43681;BME280;29281;50.356;30.894;2023-02-04T08:32:12;100000.98;;;2.89;88.41
43681;BME280;29281;50.356;30.894;2023-02-04T08:33:19;99997.19;;;2.74;87.12
43681;BME280;29281;50.356;30.894;2023-02-04T08:34:23;99997.10;;;2.76;87.28
43681;BME280;29281;50.356;30.894;2023-02-04T08:35:26;99998.17;;;2.48;87.58
43681;BME280;29281;50.356;30.894;2023-02-04T08:36:29;100000.02;;;2.23;89.28
43681;BME280;29281;50.356;30.894;2023-02-04T08:37:32;99998.00;;;2.30;89.85
43681;BME280;29281;50.356;30.894;2023-02-04T08:38:35;100003.14;;;2.33;90.20
43681;BME280;29281;50.356;30.894;2023-02-04T08:39:37;100008.11;;;2.40;89.68
43681;BME280;29281;50.356;30.894;2023-02-04T08:40:42;100007.69;;;2.04;90.42
43681;BME280;29281;50.356;30.894;2023-02-04T08:41:46;100001.38;;;2.10;91.03
43681;BME280;29281;50.356;30.894;2023-02-04T08:42:52;100012.92;;;2.04;91.01
43681;BME280;29281;50.356;30.894;2023-02-04T08:43:55;100009.80;;;2.18;90.76
43681;BME280;29281;50.356;30.894;2023-02-04T08:44:58;100013.52;;;2.36;89.79
43681;BME280;29281;50.356;30.894;2023-02-04T08:46:01;100013.30;;;2.42;89.82
43681;BME280;29281;50.356;30.894;2023-02-04T08:47:04;100008.48;;;2.30;89.37
43681;BME280;29281;50.356;30.894;2023-02-04T08:48:09;100015.33;;;2.34;90.13
43681;BME280;29281;50.356;30.894;2023-02-04T08:49:12;100012.55;;;2.38;90.86
43681;BME280;29281;50.356;30.894;2023-02-04T08:50:17;100019.82;;;2.30;89.43
43681;BME280;29281;50.356;30.894;2023-02-04T08:51:20;100018.20;;;2.28;89.41
43681;BME280;29281;50.356;30.894;2023-02-04T08:52:23;100013.56;;;2.34;89.78
43681;BME280;29281;50.356;30.894;2023-02-04T08:53:26;100012.20;;;2.24;89.77
43681;BME280;29281;50.356;30.894;2023-02-04T08:54:29;100013.45;;;2.37;89.04
43681;BME280;29281;50.356;30.894;2023-02-04T08:55:31;100011.28;;;2.48;88.27
43681;BME280;29281;50.356;30.894;2023-02-04T08:56:34;100010.31;;;2.51;88.72
43681;BME280;29281;50.356;30.894;2023-02-04T08:57:39;100015.91;;;2.42;88.37
43681;BME280;29281;50.356;30.894;2023-02-04T08:58:43;100011.25;;;2.27;89.24
43681;BME280;29281;50.356;30.894;2023-02-04T08:59:47;100014.09;;;2.44;88.43
43681;BME280;29281;50.356;30.894;2023-02-04T09:00:53;100016.77;;;2.42;88.51
43681;BME280;29281;50.356;30.894;2023-02-04T09:01:55;100014.42;;;2.35;89.34
43681;BME280;29281;50.356;30.894;2023-02-04T09:02:58;100012.81;;;2.31;89.84
43681;BME280;29281;50.356;30.894;2023-02-04T09:04:07;100016.24;;;2.09;90.03
43681;BME280;29281;50.356;30.894;2023-02-04T09:05:10;100015.08;;;1.93;90.73
43681;BME280;29281;50.356;30.894;2023-02-04T09:06:12;100017.23;;;1.82;91.67
43681;BME280;29281;50.356;30.894;2023-02-04T09:07:16;100015.89;;;1.95;91.66
43681;BME280;29281;50.356;30.894;2023-02-04T09:08:19;100019.67;;;1.87;91.72
43681;BME280;29281;50.356;30.894;2023-02-04T09:09:23;100011.56;;;1.94;92.81
43681;BME280;29281;50.356;30.894;2023-02-04T09:10:27;100016.75;;;2.19;91.26
43681;BME280;29281;50.356;30.894;2023-02-04T09:11:31;100016.34;;;2.06;90.54
43681;BME280;29281;50.356;30.894;2023-02-04T09:12:34;100022.44;;;2.07;90.41
43681;BME280;29281;50.356;30.894;2023-02-04T09:13:37;100025.39;;;1.73;91.34
43681;BME280;29281;50.356;30.894;2023-02-04T09:14:41;100018.19;;;1.80;91.27
43681;BME280;29281;50.356;30.894;2023-02-04T09:15:46;100020.91;;;1.76;92.47
43681;BME280;29281;50.356;30.894;2023-02-04T09:16:49;100019.05;;;1.80;92.33
43681;BME280;29281;50.356;30.894;2023-02-04T09:17:54;100020.58;;;2.10;90.94
43681;BME280;29281;50.356;30.894;2023-02-04T09:19:06;100019.42;;;2.18;90.87
43681;BME280;29281;50.356;30.894;2023-02-04T09:20:12;100015.69;;;2.25;90.72
43681;BME280;29281;50.356;30.894;2023-02-04T09:21:17;100021.14;;;2.19;90.15
43681;BME280;29281;50.356;30.894;2023-02-04T09:22:21;100019.47;;;1.93;90.97
43681;BME280;29281;50.356;30.894;2023-02-04T09:23:24;100015.49;;;2.06;91.19
43681;BME280;29281;50.356;30.894;2023-02-04T09:24:27;100021.59;;;2.06;90.12
43681;BME280;29281;50.356;30.894;2023-02-04T09:25:31;100020.27;;;1.95;90.36
43681;BME280;29281;50.356;30.894;2023-02-04T09:26:34;100026.91;;;1.80;90.48
43681;BME280;29281;50.356;30.894;2023-02-04T09:27:37;100016.09;;;1.89;90.82
43681;BME280;29281;50.356;30.894;2023-02-04T09:28:41;100020.73;;;2.06;90.39
43681;BME280;29281;50.356;30.894;2023-02-04T09:29:45;100022.64;;;2.26;89.93
43681;BME280;29281;50.356;30.894;2023-02-04T09:30:48;100015.86;;;2.43;89.04
43681;BME280;29281;50.356;30.894;2023-02-04T09:31:50;100024.38;;;2.48;87.58
43681;BME280;29281;50.356;30.894;2023-02-04T09:32:53;100014.48;;;2.57;87.04
43681;BME280;29281;50.356;30.894;2023-02-04T09:33:58;100023.91;;;2.61;86.56
43681;BME280;29281;50.356;30.894;2023-02-04T09:35:01;100024.11;;;2.56;85.50
43681;BME280;29281;50.356;30.894;2023-02-04T09:36:04;100022.23;;;2.36;87.31
43681;BME280;29281;50.356;30.894;2023-02-04T09:37:08;100014.15;;;2.42;88.06
43681;BME280;29281;50.356;30.894;2023-02-04T09:38:12;100016.47;;;2.50;86.53
43681;BME280;29281;50.356;30.894;2023-02-04T09:39:15;100018.64;;;2.39;87.06
43681;BME280;29281;50.356;30.894;2023-02-04T09:40:18;100015.86;;;2.43;87.18
43681;BME280;29281;50.356;30.894;2023-02-04T09:41:22;100020.11;;;2.46;87.96
43681;BME280;29281;50.356;30.894;2023-02-04T09:42:26;100013.05;;;2.48;88.53
43681;BME280;29281;50.356;30.894;2023-02-04T09:43:37;100016.36;;;2.53;88.16
43681;BME280;29281;50.356;30.894;2023-02-04T09:44:37;100015.91;;;2.42;88.53
43681;BME280;29281;50.356;30.894;2023-02-04T09:45:41;100019.77;;;2.32;87.99
43681;BME280;29281;50.356;30.894;2023-02-04T09:46:48;100015.22;;;2.37;88.26
43681;BME280;29281;50.356;30.894;2023-02-04T09:47:52;100021.08;;;2.20;89.24
43681;BME280;29281;50.356;30.894;2023-02-04T09:48:58;100022.05;;;2.18;89.93
43681;BME280;29281;50.356;30.894;2023-02-04T09:50:04;100011.25;;;2.27;90.68
43681;BME280;29281;50.356;30.894;2023-02-04T09:51:09;100015.66;;;2.48;89.98
43681;BME280;29281;50.356;30.894;2023-02-04T09:52:12;100019.89;;;2.52;89.98
43681;BME280;29281;50.356;30.894;2023-02-04T09:53:18;100021.27;;;2.39;87.97
43681;BME280;29281;50.356;30.894;2023-02-04T09:54:30;100014.47;;;2.33;88.53
43681;BME280;29281;50.356;30.894;2023-02-04T09:55:34;100027.28;;;2.18;88.90
43681;BME280;29281;50.356;30.894;2023-02-04T09:56:38;100019.83;;;2.07;89.66
43681;BME280;29281;50.356;30.894;2023-02-04T09:57:42;100019.66;;;2.11;89.15
43681;BME280;29281;50.356;30.894;2023-02-04T09:58:45;100016.14;;;2.13;89.57
43681;BME280;29281;50.356;30.894;2023-02-04T09:59:48;100019.61;;;2.13;90.20
43681;BME280;29281;50.356;30.894;2023-02-04T10:01:16;100015.79;;;2.22;90.23
43681;BME280;29281;50.356;30.894;2023-02-04T10:02:19;100021.70;;;2.50;89.00
43681;BME280;29281;50.356;30.894;2023-02-04T10:03:21;100025.34;;;2.46;89.21
43681;BME280;29281;50.356;30.894;2023-02-04T10:04:24;100021.42;;;2.34;89.11
43681;BME280;29281;50.356;30.894;2023-02-04T10:05:32;100022.44;;;2.30;89.52
43681;BME280;29281;50.356;30.894;2023-02-04T10:06:33;100026.67;;;2.34;89.25
43681;BME280;29281;50.356;30.894;2023-02-04T10:07:36;100030.48;;;2.49;88.11
43681;BME280;29281;50.356;30.894;2023-02-04T10:08:39;100031.50;;;2.45;88.54
43681;BME280;29281;50.356;30.894;2023-02-04T10:09:42;100032.26;;;2.25;88.86
43681;BME280;29281;50.356;30.894;2023-02-04T10:10:46;100029.53;;;2.28;88.32
43681;BME280;29281;50.356;30.894;2023-02-04T10:11:54;100028.67;;;2.28;89.20
43681;BME280;29281;50.356;30.894;2023-02-04T10:12:56;100026.67;;;2.34;88.94
43681;BME280;29281;50.356;30.894;2023-02-04T10:14:00;100028.78;;;2.25;89.61
43681;BME280;29281;50.356;30.894;2023-02-04T10:15:03;100032.36;;;2.22;89.70
43681;BME280;29281;50.356;30.894;2023-02-04T10:16:18;100036.63;;;2.48;88.95
43681;BME280;29281;50.356;30.894;2023-02-04T10:17:20;100034.59;;;2.56;87.83
43681;BME280;29281;50.356;30.894;2023-02-04T10:18:28;100031.61;;;2.65;87.59
43681;BME280;29281;50.356;30.894;2023-02-04T10:19:31;100035.30;;;2.83;86.57
43681;BME280;29281;50.356;30.894;2023-02-04T10:20:36;100033.42;;;2.87;85.69
43681;BME280;29281;50.356;30.894;2023-02-04T10:21:39;100040.08;;;3.17;84.25
43681;BME280;29281;50.356;30.894;2023-02-04T10:22:44;100038.41;;;2.93;84.36
43681;BME280;29281;50.356;30.894;2023-02-04T10:23:48;100048.53;;;3.24;83.51
43681;BME280;29281;50.356;30.894;2023-02-04T10:24:51;100048.24;;;3.31;82.75
43681;BME280;29281;50.356;30.894;2023-02-04T10:25:54;100030.67;;;3.53;82.94
43681;BME280;29281;50.356;30.894;2023-02-04T10:27:15;100040.14;;;3.58;81.29
43681;BME280;29281;50.356;30.894;2023-02-04T10:28:05;100042.30;;;3.48;81.48
43681;BME280;29281;50.356;30.894;2023-02-04T10:29:15;100041.75;;;3.40;82.99
43681;BME280;29281;50.356;30.894;2023-02-04T10:30:19;100053.42;;;3.11;83.41
43681;BME280;29281;50.356;30.894;2023-02-04T10:31:36;100044.59;;;3.35;82.72
43681;BME280;29281;50.356;30.894;2023-02-04T10:32:40;100049.56;;;3.41;82.03
43681;BME280;29281;50.356;30.894;2023-02-04T10:33:43;100050.92;;;3.08;83.44
43681;BME280;29281;50.356;30.894;2023-02-04T10:34:45;100052.27;;;2.96;82.95
43681;BME280;29281;50.356;30.894;2023-02-04T10:35:50;100061.47;;;2.85;83.71
43681;BME280;29281;50.356;30.894;2023-02-04T10:36:55;100057.19;;;2.82;84.30
43681;BME280;29281;50.356;30.894;2023-02-04T10:38:02;100056.31;;;2.60;85.16
43681;BME280;29281;50.356;30.894;2023-02-04T10:39:11;100050.04;;;2.40;87.16
43681;BME280;29281;50.356;30.894;2023-02-04T13:35:41;100230.33;;;1.21;80.11
43681;BME280;29281;50.356;30.894;2023-02-04T13:36:44;100242.14;;;1.34;78.15
43681;BME280;29281;50.356;30.894;2023-02-04T13:37:48;100247.56;;;0.97;78.88
43681;BME280;29281;50.356;30.894;2023-02-04T13:38:51;100246.74;;;0.95;78.87
43681;BME280;29281;50.356;30.894;2023-02-04T13:39:54;100240.53;;;0.99;79.70
43681;BME280;29281;50.356;30.894;2023-02-04T13:40:56;100242.25;;;1.00;79.70
43681;BME280;29281;50.356;30.894;2023-02-04T13:42:00;100248.84;;;1.13;78.50
43681;BME280;29281;50.356;30.894;2023-02-04T13:43:07;100251.03;;;0.97;79.62
43681;BME280;29281;50.356;30.894;2023-02-04T13:44:10;100252.05;;;0.92;79.20
43681;BME280;29281;50.356;30.894;2023-02-04T13:45:13;100252.55;;;1.06;79.14
43681;BME280;29281;50.356;30.894;2023-02-04T13:46:18;100250.25;;;0.94;80.00
43681;BME280;29281;50.356;30.894;2023-02-04T13:47:21;100254.89;;;0.84;80.22
43681;BME280;29281;50.356;30.894;2023-02-04T13:48:26;100251.64;;;0.76;80.92
43681;BME280;29281;50.356;30.894;2023-02-04T13:49:29;100258.33;;;0.86;82.05
43681;BME280;29281;50.356;30.894;2023-02-04T13:50:32;100254.51;;;0.98;83.34
43681;BME280;29281;50.356;30.894;2023-02-04T13:53:00;100263.29;;;0.95;81.19
43681;BME280;29281;50.356;30.894;2023-02-04T13:54:04;100268.56;;;0.94;80.87
43681;BME280;29281;50.356;30.894;2023-02-04T13:55:07;100261.06;;;0.82;81.54
43681;BME280;29281;50.356;30.894;2023-02-04T13:56:12;100274.72;;;0.60;81.48
43681;BME280;29281;50.356;30.894;2023-02-04T13:57:16;100274.46;;;0.69;80.60
43681;BME280;29281;50.356;30.894;2023-02-04T13:58:18;100272.77;;;0.99;80.11
43681;BME280;29281;50.356;30.894;2023-02-04T13:59:21;100287.82;;;0.59;78.81
43681;BME280;29281;50.356;30.894;2023-02-04T14:00:25;100283.81;;;0.46;80.40
43681;BME280;29281;50.356;30.894;2023-02-04T14:01:28;100282.41;;;0.31;81.69
43681;BME280;29281;50.356;30.894;2023-02-04T14:02:32;100285.39;;;0.51;79.52
43681;BME280;29281;50.356;30.894;2023-02-04T14:03:35;100286.28;;;0.50;80.51
43681;BME280;29281;50.356;30.894;2023-02-04T14:04:38;100290.34;;;0.28;80.45
43681;BME280;29281;50.356;30.894;2023-02-04T14:05:40;100288.56;;;0.30;80.07
43681;BME280;29281;50.356;30.894;2023-02-04T14:06:42;100285.02;;;0.31;81.25
43681;BME280;29281;50.356;30.894;2023-02-04T14:07:46;100281.20;;;0.46;80.78
43681;BME280;29281;50.356;30.894;2023-02-04T14:08:50;100286.73;;;0.32;78.64
43681;BME280;29281;50.356;30.894;2023-02-04T14:09:55;100288.86;;;0.52;78.79
43681;BME280;29281;50.356;30.894;2023-02-04T14:11:00;100298.17;;;0.62;78.60
43681;BME280;29281;50.356;30.894;2023-02-04T14:12:05;100298.31;;;0.57;79.46
43681;BME280;29281;50.356;30.894;2023-02-04T14:13:08;100297.55;;;0.52;78.98
43681;BME280;29281;50.356;30.894;2023-02-04T14:14:12;100297.70;;;0.46;79.04
43681;BME280;29281;50.356;30.894;2023-02-04T14:15:15;100302.17;;;0.43;78.75
43681;BME280;29281;50.356;30.894;2023-02-04T14:16:18;100303.27;;;0.32;78.35
43681;BME280;29281;50.356;30.894;2023-02-04T14:17:22;100294.30;;;0.44;78.70
43681;BME280;29281;50.356;30.894;2023-02-04T14:18:27;100301.56;;;0.65;77.20
43681;BME280;29281;50.356;30.894;2023-02-04T14:19:31;100305.11;;;0.63;78.02
43681;BME280;29281;50.356;30.894;2023-02-04T14:20:35;100303.57;;;0.56;77.61
43681;BME280;29281;50.356;30.894;2023-02-04T14:21:38;100299.77;;;0.33;77.53
43681;BME280;29281;50.356;30.894;2023-02-04T14:22:42;100303.09;;;0.40;77.97
43681;BME280;29281;50.356;30.894;2023-02-04T14:23:44;100302.85;;;0.49;78.72
43681;BME280;29281;50.356;30.894;2023-02-04T14:24:48;100301.06;;;0.51;78.87
43681;BME280;29281;50.356;30.894;2023-02-04T14:25:52;100303.85;;;0.45;78.66
43681;BME280;29281;50.356;30.894;2023-02-04T14:26:57;100311.48;;;0.53;78.72
43681;BME280;29281;50.356;30.894;2023-02-04T14:28:04;100308.63;;;0.62;78.98
43681;BME280;29281;50.356;30.894;2023-02-04T14:29:09;100320.28;;;0.49;78.35
43681;BME280;29281;50.356;30.894;2023-02-04T14:30:19;100311.41;;;0.20;80.02
43681;BME280;29281;50.356;30.894;2023-02-04T14:31:23;100312.17;;;0.25;80.23
43681;BME280;29281;50.356;30.894;2023-02-04T14:32:26;100310.94;;;0.40;81.06
43681;BME280;29281;50.356;30.894;2023-02-04T14:33:28;100318.05;;;0.33;80.83
43681;BME280;29281;50.356;30.894;2023-02-04T14:34:33;100311.27;;;0.26;79.82
43681;BME280;29281;50.356;30.894;2023-02-04T14:35:37;100322.91;;;0.13;78.33
43681;BME280;29281;50.356;30.894;2023-02-04T14:36:41;100318.52;;;0.15;77.77
43681;BME280;29281;50.356;30.894;2023-02-04T14:37:47;100325.63;;;0.09;77.38
43681;BME280;29281;50.356;30.894;2023-02-04T14:38:50;100328.67;;;-0.11;76.78
43681;BME280;29281;50.356;30.894;2023-02-04T14:39:53;100331.25;;;-0.10;77.65
43681;BME280;29281;50.356;30.894;2023-02-04T14:40:58;100315.47;;;-0.04;77.31
43681;BME280;29281;50.356;30.894;2023-02-04T14:42:03;100336.13;;;0.06;77.43
43681;BME280;29281;50.356;30.894;2023-02-04T14:43:08;100330.65;;;0.16;76.16
43681;BME280;29281;50.356;30.894;2023-02-04T14:44:14;100325.63;;;0.09;77.91
43681;BME280;29281;50.356;30.894;2023-02-04T14:45:18;100329.25;;;0.02;78.45
43681;BME280;29281;50.356;30.894;2023-02-04T14:46:22;100330.02;;;0.07;76.86
43681;BME280;29281;50.356;30.894;2023-02-04T14:47:24;100328.58;;;-0.07;76.50
43681;BME280;29281;50.356;30.894;2023-02-04T14:48:27;100333.80;;;-0.07;76.65
43681;BME280;29281;50.356;30.894;2023-02-04T14:49:31;100324.38;;;-0.14;78.53
43681;BME280;29281;50.356;30.894;2023-02-04T14:50:34;100335.55;;;-0.07;78.29
43681;BME280;29281;50.356;30.894;2023-02-04T14:51:39;100331.56;;;-0.23;77.88
43681;BME280;29281;50.356;30.894;2023-02-04T14:52:42;100333.61;;;-0.38;78.01
43681;BME280;29281;50.356;30.894;2023-02-04T14:53:49;100333.55;;;-0.34;77.26
43681;BME280;29281;50.356;30.894;2023-02-04T14:54:50;100328.92;;;-0.22;77.44
43681;BME280;29281;50.356;30.894;2023-02-04T14:55:53;100326.06;;;-0.11;76.35
43681;BME280;29281;50.356;30.894;2023-02-04T14:56:56;100332.11;;;-0.09;75.76
43681;BME280;29281;50.356;30.894;2023-02-04T14:57:59;100333.84;;;-0.08;75.02
43681;BME280;29281;50.356;30.894;2023-02-04T14:59:02;100328.95;;;-0.23;75.84
43681;BME280;29281;50.356;30.894;2023-02-04T15:00:06;100328.19;;;-0.28;76.46
43681;BME280;29281;50.356;30.894;2023-02-04T15:01:10;100330.67;;;-0.22;77.81
43681;BME280;29281;50.356;30.894;2023-02-04T15:02:13;100328.98;;;-0.25;77.14
43681;BME280;29281;50.356;30.894;2023-02-04T15:03:19;100332.64;;;-0.32;78.36
43681;BME280;29281;50.356;30.894;2023-02-04T15:04:22;100333.50;;;-0.31;77.97
43681;BME280;29281;50.356;30.894;2023-02-04T15:05:28;100332.87;;;-0.44;78.75
43681;BME280;29281;50.356;30.894;2023-02-04T15:06:31;100331.56;;;-0.23;78.33
43681;BME280;29281;50.356;30.894;2023-02-04T15:07:36;100337.40;;;-0.12;78.20
43681;BME280;29281;50.356;30.894;2023-02-04T15:08:39;100339.63;;;0.05;77.79
43681;BME280;29281;50.356;30.894;2023-02-04T15:09:42;100343.16;;;0.02;78.07
43681;BME280;29281;50.356;30.894;2023-02-04T15:10:49;100349.62;;;-0.14;78.24
43681;BME280;29281;50.356;30.894;2023-02-04T15:11:52;100340.31;;;-0.26;78.86
43681;BME280;29281;50.356;30.894;2023-02-04T15:12:54;100348.67;;;-0.10;78.69
43681;BME280;29281;50.356;30.894;2023-02-04T15:13:57;100354.40;;;-0.33;77.51
43681;BME280;29281;50.356;30.894;2023-02-04T15:15:01;100354.63;;;-0.45;77.40
43681;BME280;29281;50.356;30.894;2023-02-04T15:16:04;100360.33;;;-0.68;78.31
43681;BME280;29281;50.356;30.894;2023-02-04T15:17:10;100362.17;;;-0.75;78.42
43681;BME280;29281;50.356;30.894;2023-02-04T15:18:13;100354.05;;;-0.59;78.71
43681;BME280;29281;50.356;30.894;2023-02-04T15:19:17;100362.34;;;-0.39;78.61
43681;BME280;29281;50.356;30.894;2023-02-04T15:20:20;100360.30;;;-0.25;77.09
43681;BME280;29281;50.356;30.894;2023-02-04T15:21:25;100361.13;;;-0.23;76.50
43681;BME280;29281;50.356;30.894;2023-02-04T15:22:29;100367.73;;;-0.47;77.39
43681;BME280;29281;50.356;30.894;2023-02-04T15:23:33;100370.48;;;-0.54;77.56
43681;BME280;29281;50.356;30.894;2023-02-04T15:24:38;100361.85;;;-0.58;78.21
43681;BME280;29281;50.356;30.894;2023-02-04T15:25:41;100375.70;;;-0.54;78.19
43681;BME280;29281;50.356;30.894;2023-02-04T15:27:01;100374.06;;;-0.60;77.87
43681;BME280;29281;50.356;30.894;2023-02-04T15:28:06;100379.39;;;-0.64;77.57
43681;BME280;29281;50.356;30.894;2023-02-04T15:29:11;100374.17;;;-0.64;77.57
43681;BME280;29281;50.356;30.894;2023-02-04T15:30:15;100376.56;;;-0.54;76.49
43681;BME280;29281;50.356;30.894;2023-02-04T15:31:36;100369.81;;;-0.64;77.72
43681;BME280;29281;50.356;30.894;2023-02-04T15:32:41;100390.77;;;-0.68;77.92
43681;BME280;29281;50.356;30.894;2023-02-04T15:33:46;100371.52;;;-0.61;78.53